sensor_id;sensor_type;location;lat;lon;timestamp;temperature;humidity
6373;DHT22;3219;51.362;7.074;2022-10-15T00:00:07;13.60;99.90
6373;DHT22;3219;51.362;7.074;2022-10-15T00:02:34;13.60;99.90
6373;DHT22;3219;51.362;7.074;2022-10-15T00:05:01;13.60;99.90
6373;DHT22;3219;51.362;7.074;2022-10-15T00:07:28;13.60;99.90
6373;DHT22;3219;51.362;7.074;2022-10-15T00:09:55;13.60;99.90
6373;DHT22;3219;51.362;7.074;2022-10-15T00:12:21;13.50;99.90
6373;DHT22;3219;51.362;7.074;2022-10-15T00:14:48;13.50;99.90
6373;DHT22;3219;51.362;7.074;2022-10-15T00:17:16;13.50;99.90
6373;DHT22;3219;51.362;7.074;2022-10-15T00:19:43;13.50;99.90
6373;DHT22;3219;51.362;7.074;2022-10-15T00:22:10;13.50;99.90
6373;DHT22;3219;51.362;7.074;2022-10-15T00:24:37;13.50;99.90
6373;DHT22;3219;51.362;7.074;2022-10-15T00:27:03;13.50;99.90
6373;DHT22;3219;51.362;7.074;2022-10-15T00:29:30;13.50;99.90
6373;DHT22;3219;51.362;7.074;2022-10-15T00:31:57;13.40;99.90
6373;DHT22;3219;51.362;7.074;2022-10-15T00:34:25;13.40;99.90
6373;DHT22;3219;51.362;7.074;2022-10-15T00:36:52;13.40;99.90
6373;DHT22;3219;51.362;7.074;2022-10-15T00:39:18;13.40;99.90
6373;DHT22;3219;51.362;7.074;2022-10-15T00:41:45;13.40;99.90
6373;DHT22;3219;51.362;7.074;2022-10-15T00:44:47;13.40;99.90
6373;DHT22;3219;51.362;7.074;2022-10-15T00:47:17;13.40;99.90
6373;DHT22;3219;51.362;7.074;2022-10-15T00:49:49;13.40;99.90
6373;DHT22;3219;51.362;7.074;2022-10-15T00:52:19;13.40;99.90
6373;DHT22;3219;51.362;7.074;2022-10-15T00:54:52;13.40;99.90
6373;DHT22;3219;51.362;7.074;2022-10-15T00:57:20;13.30;99.90
6373;DHT22;3219;51.362;7.074;2022-10-15T00:59:51;13.30;99.90
6373;DHT22;3219;51.362;7.074;2022-10-15T01:02:19;13.20;99.90
6373;DHT22;3219;51.362;7.074;2022-10-15T01:04:48;13.20;99.90
6373;DHT22;3219;51.362;7.074;2022-10-15T01:07:15;13.20;99.90
6373;DHT22;3219;51.362;7.074;2022-10-15T01:09:42;13.10;99.90
6373;DHT22;3219;51.362;7.074;2022-10-15T01:12:13;13.10;99.90
6373;DHT22;3219;51.362;7.074;2022-10-15T01:14:48;13.10;99.90
6373;DHT22;3219;51.362;7.074;2022-10-15T01:17:20;13.10;99.90
6373;DHT22;3219;51.362;7.074;2022-10-15T01:20:26;13.00;99.90
6373;DHT22;3219;51.362;7.074;2022-10-15T01:23:10;13.00;99.90
6373;DHT22;3219;51.362;7.074;2022-10-15T01:25:48;13.10;99.90
6373;DHT22;3219;51.362;7.074;2022-10-15T01:28:26;13.10;99.90
6373;DHT22;3219;51.362;7.074;2022-10-15T01:31:00;13.00;99.90
6373;DHT22;3219;51.362;7.074;2022-10-15T01:33:34;13.10;99.90
6373;DHT22;3219;51.362;7.074;2022-10-15T01:36:11;13.10;99.90
6373;DHT22;3219;51.362;7.074;2022-10-15T01:38:50;13.10;99.90
6373;DHT22;3219;51.362;7.074;2022-10-15T01:41:25;13.10;99.90
6373;DHT22;3219;51.362;7.074;2022-10-15T01:43:59;13.10;99.90
6373;DHT22;3219;51.362;7.074;2022-10-15T01:46:33;13.20;99.90
6373;DHT22;3219;51.362;7.074;2022-10-15T01:49:02;13.20;99.90
6373;DHT22;3219;51.362;7.074;2022-10-15T01:51:31;13.20;99.90
6373;DHT22;3219;51.362;7.074;2022-10-15T01:53:59;13.20;99.90
6373;DHT22;3219;51.362;7.074;2022-10-15T01:56:27;13.10;99.90
6373;DHT22;3219;51.362;7.074;2022-10-15T01:58:55;13.10;99.90
6373;DHT22;3219;51.362;7.074;2022-10-15T02:01:22;13.20;99.90
6373;DHT22;3219;51.362;7.074;2022-10-15T02:03:52;13.10;99.90
6373;DHT22;3219;51.362;7.074;2022-10-15T02:06:22;13.20;99.90
6373;DHT22;3219;51.362;7.074;2022-10-15T02:08:58;13.10;99.90
6373;DHT22;3219;51.362;7.074;2022-10-15T02:11:28;13.20;99.90
6373;DHT22;3219;51.362;7.074;2022-10-15T02:14:00;13.10;99.90
6373;DHT22;3219;51.362;7.074;2022-10-15T02:16:36;13.10;99.90
6373;DHT22;3219;51.362;7.074;2022-10-15T02:19:10;13.20;99.90
6373;DHT22;3219;51.362;7.074;2022-10-15T02:21:42;13.20;99.90
6373;DHT22;3219;51.362;7.074;2022-10-15T02:24:12;13.20;99.90
6373;DHT22;3219;51.362;7.074;2022-10-15T02:26:40;13.20;99.90
6373;DHT22;3219;51.362;7.074;2022-10-15T02:29:10;13.20;99.90
6373;DHT22;3219;51.362;7.074;2022-10-15T02:31:39;13.20;99.90
6373;DHT22;3219;51.362;7.074;2022-10-15T02:34:10;13.20;99.90
6373;DHT22;3219;51.362;7.074;2022-10-15T02:36:39;13.20;99.90
6373;DHT22;3219;51.362;7.074;2022-10-15T02:39:10;13.20;99.90
6373;DHT22;3219;51.362;7.074;2022-10-15T02:41:37;13.20;99.90
6373;DHT22;3219;51.362;7.074;2022-10-15T02:44:05;13.20;99.90
6373;DHT22;3219;51.362;7.074;2022-10-15T02:46:32;13.20;99.90
6373;DHT22;3219;51.362;7.074;2022-10-15T02:48:58;13.20;99.90
6373;DHT22;3219;51.362;7.074;2022-10-15T02:51:29;13.10;99.90
6373;DHT22;3219;51.362;7.074;2022-10-15T02:53:56;13.20;99.90
6373;DHT22;3219;51.362;7.074;2022-10-15T02:56:23;13.10;99.90
6373;DHT22;3219;51.362;7.074;2022-10-15T02:58:50;13.10;99.90
6373;DHT22;3219;51.362;7.074;2022-10-15T03:01:17;13.10;99.90
6373;DHT22;3219;51.362;7.074;2022-10-15T03:03:44;13.10;99.90
6373;DHT22;3219;51.362;7.074;2022-10-15T03:06:10;13.10;99.90
6373;DHT22;3219;51.362;7.074;2022-10-15T03:08:39;13.10;99.90
6373;DHT22;3219;51.362;7.074;2022-10-15T03:11:07;13.10;99.90
6373;DHT22;3219;51.362;7.074;2022-10-15T03:13:34;13.10;99.90
6373;DHT22;3219;51.362;7.074;2022-10-15T03:16:03;13.10;99.90
6373;DHT22;3219;51.362;7.074;2022-10-15T03:18:30;13.10;99.90
6373;DHT22;3219;51.362;7.074;2022-10-15T03:20:57;13.10;99.90
6373;DHT22;3219;51.362;7.074;2022-10-15T03:23:24;13.10;99.90
6373;DHT22;3219;51.362;7.074;2022-10-15T03:25:52;13.10;99.90
6373;DHT22;3219;51.362;7.074;2022-10-15T03:28:20;13.10;99.90
6373;DHT22;3219;51.362;7.074;2022-10-15T03:30:46;13.10;99.90
6373;DHT22;3219;51.362;7.074;2022-10-15T03:33:13;13.10;99.90
6373;DHT22;3219;51.362;7.074;2022-10-15T03:35:40;13.10;99.90
6373;DHT22;3219;51.362;7.074;2022-10-15T03:38:07;13.10;99.90
6373;DHT22;3219;51.362;7.074;2022-10-15T03:40:34;13.10;99.90
6373;DHT22;3219;51.362;7.074;2022-10-15T03:43:02;13.00;99.90
6373;DHT22;3219;51.362;7.074;2022-10-15T03:45:29;13.10;99.90
6373;DHT22;3219;51.362;7.074;2022-10-15T03:47:55;13.00;99.90
6373;DHT22;3219;51.362;7.074;2022-10-15T03:50:22;13.00;99.90
6373;DHT22;3219;51.362;7.074;2022-10-15T03:52:49;13.00;99.90
6373;DHT22;3219;51.362;7.074;2022-10-15T03:55:16;12.90;99.90
6373;DHT22;3219;51.362;7.074;2022-10-15T03:57:42;12.90;99.90
6373;DHT22;3219;51.362;7.074;2022-10-15T04:00:12;12.90;99.90
6373;DHT22;3219;51.362;7.074;2022-10-15T04:02:40;12.90;99.90
6373;DHT22;3219;51.362;7.074;2022-10-15T04:05:07;12.90;99.90
6373;DHT22;3219;51.362;7.074;2022-10-15T04:07:33;12.90;99.90
6373;DHT22;3219;51.362;7.074;2022-10-15T04:10:01;12.90;99.90
6373;DHT22;3219;51.362;7.074;2022-10-15T04:12:28;12.90;99.90
6373;DHT22;3219;51.362;7.074;2022-10-15T04:14:54;12.90;99.90
6373;DHT22;3219;51.362;7.074;2022-10-15T04:17:22;12.90;99.90
6373;DHT22;3219;51.362;7.074;2022-10-15T04:19:49;12.90;99.90
6373;DHT22;3219;51.362;7.074;2022-10-15T04:22:16;12.90;99.90
6373;DHT22;3219;51.362;7.074;2022-10-15T04:24:42;12.90;99.90
6373;DHT22;3219;51.362;7.074;2022-10-15T04:27:10;12.90;99.90
6373;DHT22;3219;51.362;7.074;2022-10-15T04:29:36;13.00;99.90
6373;DHT22;3219;51.362;7.074;2022-10-15T04:32:03;12.90;99.90
6373;DHT22;3219;51.362;7.074;2022-10-15T04:34:31;13.00;99.90
6373;DHT22;3219;51.362;7.074;2022-10-15T04:36:58;13.00;99.90
6373;DHT22;3219;51.362;7.074;2022-10-15T04:39:25;13.00;99.90
6373;DHT22;3219;51.362;7.074;2022-10-15T04:41:52;13.00;99.90
6373;DHT22;3219;51.362;7.074;2022-10-15T04:44:19;13.00;99.90
6373;DHT22;3219;51.362;7.074;2022-10-15T04:46:45;13.00;99.90
6373;DHT22;3219;51.362;7.074;2022-10-15T04:49:12;13.00;99.90
6373;DHT22;3219;51.362;7.074;2022-10-15T04:51:40;13.00;99.90
6373;DHT22;3219;51.362;7.074;2022-10-15T04:54:07;13.10;99.90
6373;DHT22;3219;51.362;7.074;2022-10-15T04:56:33;13.10;99.90
6373;DHT22;3219;51.362;7.074;2022-10-15T04:59:00;13.10;99.90
6373;DHT22;3219;51.362;7.074;2022-10-15T05:01:27;13.10;99.90
6373;DHT22;3219;51.362;7.074;2022-10-15T05:03:54;13.10;99.90
6373;DHT22;3219;51.362;7.074;2022-10-15T05:06:21;13.10;99.90
6373;DHT22;3219;51.362;7.074;2022-10-15T05:08:50;13.10;99.90
6373;DHT22;3219;51.362;7.074;2022-10-15T05:11:19;13.20;99.90
6373;DHT22;3219;51.362;7.074;2022-10-15T05:13:46;13.20;99.90
6373;DHT22;3219;51.362;7.074;2022-10-15T05:16:15;13.10;99.90
6373;DHT22;3219;51.362;7.074;2022-10-15T05:18:43;13.10;99.90
6373;DHT22;3219;51.362;7.074;2022-10-15T05:21:11;13.10;99.90
6373;DHT22;3219;51.362;7.074;2022-10-15T05:23:38;13.20;99.90
6373;DHT22;3219;51.362;7.074;2022-10-15T05:26:08;13.10;99.90
6373;DHT22;3219;51.362;7.074;2022-10-15T05:28:36;13.10;99.90
6373;DHT22;3219;51.362;7.074;2022-10-15T05:31:03;13.20;99.90
6373;DHT22;3219;51.362;7.074;2022-10-15T05:33:30;13.20;99.90
6373;DHT22;3219;51.362;7.074;2022-10-15T05:36:06;13.10;99.90
6373;DHT22;3219;51.362;7.074;2022-10-15T05:38:33;13.10;99.90
6373;DHT22;3219;51.362;7.074;2022-10-15T05:40:59;13.10;99.90
6373;DHT22;3219;51.362;7.074;2022-10-15T05:43:27;13.10;99.90
6373;DHT22;3219;51.362;7.074;2022-10-15T05:45:54;13.10;99.90
6373;DHT22;3219;51.362;7.074;2022-10-15T05:48:21;13.10;99.90
6373;DHT22;3219;51.362;7.074;2022-10-15T05:50:48;13.10;99.90
6373;DHT22;3219;51.362;7.074;2022-10-15T05:53:14;13.10;99.90
6373;DHT22;3219;51.362;7.074;2022-10-15T05:55:41;13.10;99.90
6373;DHT22;3219;51.362;7.074;2022-10-15T05:58:08;13.10;99.90
6373;DHT22;3219;51.362;7.074;2022-10-15T06:00:36;13.10;99.90
6373;DHT22;3219;51.362;7.074;2022-10-15T06:03:04;13.10;99.90
6373;DHT22;3219;51.362;7.074;2022-10-15T06:05:30;13.10;99.90
6373;DHT22;3219;51.362;7.074;2022-10-15T06:07:57;13.10;99.90
6373;DHT22;3219;51.362;7.074;2022-10-15T06:10:24;13.10;99.90
6373;DHT22;3219;51.362;7.074;2022-10-15T06:12:52;13.10;99.90
6373;DHT22;3219;51.362;7.074;2022-10-15T06:15:19;13.20;99.90
6373;DHT22;3219;51.362;7.074;2022-10-15T06:17:51;13.20;99.90
6373;DHT22;3219;51.362;7.074;2022-10-15T06:20:17;13.20;99.90
6373;DHT22;3219;51.362;7.074;2022-10-15T06:22:44;13.20;99.90
6373;DHT22;3219;51.362;7.074;2022-10-15T06:25:11;13.10;99.90
6373;DHT22;3219;51.362;7.074;2022-10-15T06:27:38;13.20;99.90
6373;DHT22;3219;51.362;7.074;2022-10-15T06:30:06;13.20;99.90
6373;DHT22;3219;51.362;7.074;2022-10-15T06:32:33;13.20;99.90
6373;DHT22;3219;51.362;7.074;2022-10-15T06:35:01;13.20;99.90
6373;DHT22;3219;51.362;7.074;2022-10-15T06:37:28;13.30;99.90
6373;DHT22;3219;51.362;7.074;2022-10-15T06:39:55;13.20;99.90
6373;DHT22;3219;51.362;7.074;2022-10-15T06:42:22;13.20;99.90
6373;DHT22;3219;51.362;7.074;2022-10-15T06:44:48;13.20;99.90
6373;DHT22;3219;51.362;7.074;2022-10-15T06:47:15;13.30;99.90
6373;DHT22;3219;51.362;7.074;2022-10-15T06:49:42;13.30;99.90
6373;DHT22;3219;51.362;7.074;2022-10-15T06:52:10;13.40;99.90
6373;DHT22;3219;51.362;7.074;2022-10-15T06:54:36;13.40;99.90
6373;DHT22;3219;51.362;7.074;2022-10-15T06:57:03;13.40;99.90
6373;DHT22;3219;51.362;7.074;2022-10-15T06:59:30;13.40;99.90
6373;DHT22;3219;51.362;7.074;2022-10-15T07:01:56;13.50;99.90
6373;DHT22;3219;51.362;7.074;2022-10-15T07:04:23;13.50;99.90
6373;DHT22;3219;51.362;7.074;2022-10-15T07:06:50;13.50;99.90
6373;DHT22;3219;51.362;7.074;2022-10-15T07:09:18;13.60;99.90
6373;DHT22;3219;51.362;7.074;2022-10-15T07:11:45;13.60;99.90
6373;DHT22;3219;51.362;7.074;2022-10-15T07:14:12;13.60;99.90
6373;DHT22;3219;51.362;7.074;2022-10-15T07:16:39;13.70;99.90
6373;DHT22;3219;51.362;7.074;2022-10-15T07:19:05;13.60;99.90
6373;DHT22;3219;51.362;7.074;2022-10-15T07:21:32;13.70;99.90
6373;DHT22;3219;51.362;7.074;2022-10-15T07:23:59;13.70;99.90
6373;DHT22;3219;51.362;7.074;2022-10-15T07:26:27;13.70;99.90
6373;DHT22;3219;51.362;7.074;2022-10-15T07:28:55;13.80;99.90
6373;DHT22;3219;51.362;7.074;2022-10-15T07:31:22;13.80;99.90
6373;DHT22;3219;51.362;7.074;2022-10-15T07:33:49;13.90;99.90
6373;DHT22;3219;51.362;7.074;2022-10-15T07:36:16;13.80;99.90
6373;DHT22;3219;51.362;7.074;2022-10-15T07:38:45;13.90;99.90
6373;DHT22;3219;51.362;7.074;2022-10-15T07:41:12;13.90;99.90
6373;DHT22;3219;51.362;7.074;2022-10-15T07:43:40;13.90;99.90
6373;DHT22;3219;51.362;7.074;2022-10-15T07:46:07;13.90;99.90
6373;DHT22;3219;51.362;7.074;2022-10-15T07:48:34;13.90;99.90
6373;DHT22;3219;51.362;7.074;2022-10-15T07:51:02;13.90;99.90
6373;DHT22;3219;51.362;7.074;2022-10-15T07:53:30;14.00;99.90
6373;DHT22;3219;51.362;7.074;2022-10-15T07:55:58;14.00;99.90
6373;DHT22;3219;51.362;7.074;2022-10-15T07:58:25;14.10;99.90
6373;DHT22;3219;51.362;7.074;2022-10-15T08:00:58;14.10;99.90
6373;DHT22;3219;51.362;7.074;2022-10-15T08:03:25;14.20;99.90
6373;DHT22;3219;51.362;7.074;2022-10-15T08:05:52;14.20;99.90
6373;DHT22;3219;51.362;7.074;2022-10-15T08:08:20;14.30;99.90
6373;DHT22;3219;51.362;7.074;2022-10-15T08:10:47;14.30;99.90
6373;DHT22;3219;51.362;7.074;2022-10-15T08:13:14;14.40;99.90
6373;DHT22;3219;51.362;7.074;2022-10-15T08:15:40;14.50;99.90
6373;DHT22;3219;51.362;7.074;2022-10-15T08:18:09;14.70;99.90
6373;DHT22;3219;51.362;7.074;2022-10-15T08:20:36;14.80;99.90
6373;DHT22;3219;51.362;7.074;2022-10-15T08:23:03;14.90;99.90
6373;DHT22;3219;51.362;7.074;2022-10-15T08:25:29;14.90;99.90
6373;DHT22;3219;51.362;7.074;2022-10-15T08:27:57;14.90;99.90
6373;DHT22;3219;51.362;7.074;2022-10-15T08:30:24;15.10;99.90
6373;DHT22;3219;51.362;7.074;2022-10-15T08:32:51;15.10;99.90
6373;DHT22;3219;51.362;7.074;2022-10-15T08:35:19;15.20;99.90
6373;DHT22;3219;51.362;7.074;2022-10-15T08:37:46;15.20;99.90
6373;DHT22;3219;51.362;7.074;2022-10-15T08:40:14;15.30;99.90
6373;DHT22;3219;51.362;7.074;2022-10-15T08:42:43;15.30;99.90
6373;DHT22;3219;51.362;7.074;2022-10-15T08:45:15;15.40;99.90
6373;DHT22;3219;51.362;7.074;2022-10-15T08:47:45;15.40;99.90
6373;DHT22;3219;51.362;7.074;2022-10-15T08:50:22;15.50;99.90
6373;DHT22;3219;51.362;7.074;2022-10-15T08:52:53;15.50;99.90
6373;DHT22;3219;51.362;7.074;2022-10-15T08:55:22;15.50;99.90
6373;DHT22;3219;51.362;7.074;2022-10-15T08:57:53;15.60;99.90
6373;DHT22;3219;51.362;7.074;2022-10-15T09:00:23;15.50;99.90
6373;DHT22;3219;51.362;7.074;2022-10-15T09:02:56;15.60;99.90
6373;DHT22;3219;51.362;7.074;2022-10-15T09:05:31;15.80;99.90
6373;DHT22;3219;51.362;7.074;2022-10-15T09:08:09;15.80;99.90
6373;DHT22;3219;51.362;7.074;2022-10-15T09:10:42;15.90;99.90
6373;DHT22;3219;51.362;7.074;2022-10-15T09:13:13;16.10;99.90
6373;DHT22;3219;51.362;7.074;2022-10-15T09:15:47;16.00;99.90
6373;DHT22;3219;51.362;7.074;2022-10-15T09:18:19;16.00;99.90
6373;DHT22;3219;51.362;7.074;2022-10-15T09:20:49;15.90;99.90
6373;DHT22;3219;51.362;7.074;2022-10-15T09:23:18;15.90;99.90
6373;DHT22;3219;51.362;7.074;2022-10-15T09:25:50;15.90;99.90
6373;DHT22;3219;51.362;7.074;2022-10-15T09:28:20;16.00;99.90
6373;DHT22;3219;51.362;7.074;2022-10-15T09:30:51;16.00;99.90
6373;DHT22;3219;51.362;7.074;2022-10-15T09:33:28;16.00;99.90
6373;DHT22;3219;51.362;7.074;2022-10-15T09:36:07;16.00;99.90
6373;DHT22;3219;51.362;7.074;2022-10-15T09:38:48;16.00;99.90
6373;DHT22;3219;51.362;7.074;2022-10-15T09:41:27;16.10;99.90
6373;DHT22;3219;51.362;7.074;2022-10-15T09:43:58;16.10;99.90
6373;DHT22;3219;51.362;7.074;2022-10-15T09:46:26;16.10;99.90
6373;DHT22;3219;51.362;7.074;2022-10-15T09:49:00;16.20;99.90
6373;DHT22;3219;51.362;7.074;2022-10-15T09:51:34;16.20;99.90
6373;DHT22;3219;51.362;7.074;2022-10-15T09:54:08;16.20;99.90
6373;DHT22;3219;51.362;7.074;2022-10-15T09:56:40;16.30;99.90
6373;DHT22;3219;51.362;7.074;2022-10-15T09:59:14;16.20;99.90
6373;DHT22;3219;51.362;7.074;2022-10-15T10:01:56;16.10;99.90
6373;DHT22;3219;51.362;7.074;2022-10-15T10:04:24;16.10;99.90
6373;DHT22;3219;51.362;7.074;2022-10-15T10:06:54;16.00;99.90
6373;DHT22;3219;51.362;7.074;2022-10-15T10:09:24;16.00;99.90
6373;DHT22;3219;51.362;7.074;2022-10-15T10:11:53;16.10;99.90
6373;DHT22;3219;51.362;7.074;2022-10-15T10:14:26;16.00;99.90
6373;DHT22;3219;51.362;7.074;2022-10-15T10:17:05;16.10;99.90
6373;DHT22;3219;51.362;7.074;2022-10-15T10:19:32;16.10;99.90
6373;DHT22;3219;51.362;7.074;2022-10-15T10:22:14;16.10;99.90
6373;DHT22;3219;51.362;7.074;2022-10-15T10:24:42;16.30;99.90
6373;DHT22;3219;51.362;7.074;2022-10-15T10:27:21;16.20;99.90
6373;DHT22;3219;51.362;7.074;2022-10-15T10:29:52;16.40;99.90
6373;DHT22;3219;51.362;7.074;2022-10-15T10:32:22;16.30;99.90
6373;DHT22;3219;51.362;7.074;2022-10-15T10:34:52;16.20;99.90
6373;DHT22;3219;51.362;7.074;2022-10-15T10:37:21;16.30;99.90
6373;DHT22;3219;51.362;7.074;2022-10-15T10:39:52;16.40;99.90
6373;DHT22;3219;51.362;7.074;2022-10-15T10:42:31;16.20;99.90
6373;DHT22;3219;51.362;7.074;2022-10-15T10:45:14;16.20;99.90
6373;DHT22;3219;51.362;7.074;2022-10-15T10:47:41;16.30;99.90
6373;DHT22;3219;51.362;7.074;2022-10-15T10:50:31;16.30;99.90
6373;DHT22;3219;51.362;7.074;2022-10-15T10:53:11;16.30;99.90
6373;DHT22;3219;51.362;7.074;2022-10-15T10:55:41;16.30;99.90
6373;DHT22;3219;51.362;7.074;2022-10-15T10:58:14;16.30;99.90
6373;DHT22;3219;51.362;7.074;2022-10-15T11:00:44;16.20;99.90
6373;DHT22;3219;51.362;7.074;2022-10-15T11:03:19;16.20;99.90
6373;DHT22;3219;51.362;7.074;2022-10-15T11:05:50;16.10;99.90
6373;DHT22;3219;51.362;7.074;2022-10-15T11:08:28;16.20;99.90
6373;DHT22;3219;51.362;7.074;2022-10-15T11:11:01;16.10;99.90
6373;DHT22;3219;51.362;7.074;2022-10-15T11:13:44;16.20;99.90
6373;DHT22;3219;51.362;7.074;2022-10-15T11:16:20;16.20;99.90
6373;DHT22;3219;51.362;7.074;2022-10-15T11:18:57;16.20;99.90
6373;DHT22;3219;51.362;7.074;2022-10-15T11:21:37;16.10;99.90
6373;DHT22;3219;51.362;7.074;2022-10-15T11:24:11;16.10;99.90
6373;DHT22;3219;51.362;7.074;2022-10-15T11:26:59;16.20;99.90
6373;DHT22;3219;51.362;7.074;2022-10-15T11:29:34;16.30;99.90
6373;DHT22;3219;51.362;7.074;2022-10-15T11:32:14;16.30;99.90
6373;DHT22;3219;51.362;7.074;2022-10-15T11:34:58;16.40;99.90
6373;DHT22;3219;51.362;7.074;2022-10-15T11:37:39;16.30;99.90
6373;DHT22;3219;51.362;7.074;2022-10-15T11:40:19;16.30;99.90
6373;DHT22;3219;51.362;7.074;2022-10-15T11:42:54;16.30;99.90
6373;DHT22;3219;51.362;7.074;2022-10-15T11:48:35;16.40;99.90
6373;DHT22;3219;51.362;7.074;2022-10-15T11:51:11;16.50;99.90
6373;DHT22;3219;51.362;7.074;2022-10-15T11:54:03;16.50;99.90
6373;DHT22;3219;51.362;7.074;2022-10-15T11:56:40;16.60;99.90
6373;DHT22;3219;51.362;7.074;2022-10-15T11:59:18;16.50;99.90
6373;DHT22;3219;51.362;7.074;2022-10-15T12:01:51;16.50;99.90
6373;DHT22;3219;51.362;7.074;2022-10-15T12:04:28;16.50;99.90
6373;DHT22;3219;51.362;7.074;2022-10-15T12:06:58;16.60;99.90
6373;DHT22;3219;51.362;7.074;2022-10-15T12:09:30;16.60;99.90
6373;DHT22;3219;51.362;7.074;2022-10-15T12:12:04;16.60;99.90
6373;DHT22;3219;51.362;7.074;2022-10-15T12:14:38;16.70;99.90
6373;DHT22;3219;51.362;7.074;2022-10-15T12:17:13;16.60;99.90
6373;DHT22;3219;51.362;7.074;2022-10-15T12:19:47;16.60;99.90
6373;DHT22;3219;51.362;7.074;2022-10-15T12:22:31;16.70;99.90
6373;DHT22;3219;51.362;7.074;2022-10-15T12:24:59;16.70;99.90
6373;DHT22;3219;51.362;7.074;2022-10-15T12:27:31;16.70;99.90
6373;DHT22;3219;51.362;7.074;2022-10-15T12:30:19;16.60;99.90
6373;DHT22;3219;51.362;7.074;2022-10-15T12:32:47;16.70;99.90
6373;DHT22;3219;51.362;7.074;2022-10-15T12:38:26;16.80;99.90
6373;DHT22;3219;51.362;7.074;2022-10-15T12:40:59;16.80;99.90
6373;DHT22;3219;51.362;7.074;2022-10-15T12:43:28;16.90;99.90
6373;DHT22;3219;51.362;7.074;2022-10-15T12:45:58;16.90;99.90
6373;DHT22;3219;51.362;7.074;2022-10-15T12:48:34;16.90;99.90
6373;DHT22;3219;51.362;7.074;2022-10-15T12:54:33;17.00;99.90
6373;DHT22;3219;51.362;7.074;2022-10-15T12:57:00;17.00;99.90
6373;DHT22;3219;51.362;7.074;2022-10-15T12:59:55;17.00;99.90
6373;DHT22;3219;51.362;7.074;2022-10-15T13:02:34;17.00;99.90
6373;DHT22;3219;51.362;7.074;2022-10-15T13:05:02;17.00;99.90
6373;DHT22;3219;51.362;7.074;2022-10-15T13:07:30;17.10;99.90
6373;DHT22;3219;51.362;7.074;2022-10-15T13:09:58;17.10;99.90
6373;DHT22;3219;51.362;7.074;2022-10-15T13:12:27;17.10;99.90
6373;DHT22;3219;51.362;7.074;2022-10-15T13:15:00;17.10;99.90
6373;DHT22;3219;51.362;7.074;2022-10-15T13:17:29;17.20;99.90
6373;DHT22;3219;51.362;7.074;2022-10-15T13:19:58;17.30;99.90
6373;DHT22;3219;51.362;7.074;2022-10-15T13:22:28;17.40;99.90
6373;DHT22;3219;51.362;7.074;2022-10-15T13:24:56;17.50;99.90
6373;DHT22;3219;51.362;7.074;2022-10-15T13:27:25;17.40;99.90
6373;DHT22;3219;51.362;7.074;2022-10-15T13:29:58;17.50;99.90
6373;DHT22;3219;51.362;7.074;2022-10-15T13:32:26;17.60;99.90
6373;DHT22;3219;51.362;7.074;2022-10-15T13:34:54;17.50;99.90
6373;DHT22;3219;51.362;7.074;2022-10-15T13:37:28;17.50;99.90
6373;DHT22;3219;51.362;7.074;2022-10-15T13:39:56;17.60;99.90
6373;DHT22;3219;51.362;7.074;2022-10-15T13:42:24;17.50;99.90
6373;DHT22;3219;51.362;7.074;2022-10-15T13:44:58;17.50;99.90
6373;DHT22;3219;51.362;7.074;2022-10-15T13:47:27;17.60;99.90
6373;DHT22;3219;51.362;7.074;2022-10-15T13:50:12;17.70;99.90
6373;DHT22;3219;51.362;7.074;2022-10-15T13:52:40;17.70;99.90
6373;DHT22;3219;51.362;7.074;2022-10-15T13:55:16;17.70;99.90
6373;DHT22;3219;51.362;7.074;2022-10-15T13:57:44;17.70;99.90
6373;DHT22;3219;51.362;7.074;2022-10-15T14:00:21;17.70;99.90
6373;DHT22;3219;51.362;7.074;2022-10-15T14:03:14;17.60;99.90
6373;DHT22;3219;51.362;7.074;2022-10-15T14:05:42;17.60;99.90
6373;DHT22;3219;51.362;7.074;2022-10-15T14:08:17;17.60;99.90
6373;DHT22;3219;51.362;7.074;2022-10-15T14:10:45;17.70;99.90
6373;DHT22;3219;51.362;7.074;2022-10-15T14:13:12;17.50;99.90
6373;DHT22;3219;51.362;7.074;2022-10-15T14:15:55;17.50;99.90
6373;DHT22;3219;51.362;7.074;2022-10-15T14:18:31;17.60;99.90
6373;DHT22;3219;51.362;7.074;2022-10-15T14:20:59;17.50;99.90
6373;DHT22;3219;51.362;7.074;2022-10-15T14:23:26;17.40;99.90
6373;DHT22;3219;51.362;7.074;2022-10-15T14:25:55;17.40;99.90
6373;DHT22;3219;51.362;7.074;2022-10-15T14:28:23;17.40;99.90
6373;DHT22;3219;51.362;7.074;2022-10-15T14:30:51;17.40;99.90
6373;DHT22;3219;51.362;7.074;2022-10-15T14:33:40;17.40;99.90
6373;DHT22;3219;51.362;7.074;2022-10-15T14:36:11;17.40;99.90
6373;DHT22;3219;51.362;7.074;2022-10-15T14:38:39;17.30;99.90
6373;DHT22;3219;51.362;7.074;2022-10-15T14:41:23;17.40;99.90
6373;DHT22;3219;51.362;7.074;2022-10-15T14:44:16;17.30;99.90
6373;DHT22;3219;51.362;7.074;2022-10-15T14:46:47;17.30;99.90
6373;DHT22;3219;51.362;7.074;2022-10-15T14:49:18;17.40;99.90
6373;DHT22;3219;51.362;7.074;2022-10-15T14:51:55;17.30;99.90
6373;DHT22;3219;51.362;7.074;2022-10-15T14:54:27;17.30;99.90
6373;DHT22;3219;51.362;7.074;2022-10-15T14:56:57;17.40;99.90
6373;DHT22;3219;51.362;7.074;2022-10-15T14:59:29;17.30;99.90
6373;DHT22;3219;51.362;7.074;2022-10-15T15:01:59;17.30;99.90
6373;DHT22;3219;51.362;7.074;2022-10-15T15:04:35;17.30;99.90
6373;DHT22;3219;51.362;7.074;2022-10-15T15:07:15;17.30;99.90
6373;DHT22;3219;51.362;7.074;2022-10-15T15:09:42;17.30;99.90
6373;DHT22;3219;51.362;7.074;2022-10-15T15:12:16;17.30;99.90
6373;DHT22;3219;51.362;7.074;2022-10-15T15:14:43;17.20;99.90
6373;DHT22;3219;51.362;7.074;2022-10-15T15:17:17;17.30;99.90
6373;DHT22;3219;51.362;7.074;2022-10-15T15:19:44;17.30;99.90
6373;DHT22;3219;51.362;7.074;2022-10-15T15:22:13;17.20;99.90
6373;DHT22;3219;51.362;7.074;2022-10-15T15:24:41;17.20;99.90
6373;DHT22;3219;51.362;7.074;2022-10-15T15:27:20;17.10;99.90
6373;DHT22;3219;51.362;7.074;2022-10-15T15:29:48;17.10;99.90
6373;DHT22;3219;51.362;7.074;2022-10-15T15:32:16;17.00;99.90
6373;DHT22;3219;51.362;7.074;2022-10-15T15:34:44;17.00;99.90
6373;DHT22;3219;51.362;7.074;2022-10-15T15:37:15;16.80;99.90
6373;DHT22;3219;51.362;7.074;2022-10-15T15:39:42;16.90;99.90
6373;DHT22;3219;51.362;7.074;2022-10-15T15:42:12;16.90;99.90
6373;DHT22;3219;51.362;7.074;2022-10-15T15:44:39;16.80;99.90
6373;DHT22;3219;51.362;7.074;2022-10-15T15:47:06;16.80;99.90
6373;DHT22;3219;51.362;7.074;2022-10-15T15:49:35;16.80;99.90
6373;DHT22;3219;51.362;7.074;2022-10-15T15:52:02;16.70;99.90
6373;DHT22;3219;51.362;7.074;2022-10-15T15:54:29;16.70;99.90
6373;DHT22;3219;51.362;7.074;2022-10-15T15:56:56;16.70;99.90
6373;DHT22;3219;51.362;7.074;2022-10-15T15:59:23;16.70;99.90
6373;DHT22;3219;51.362;7.074;2022-10-15T16:01:50;16.70;99.90
6373;DHT22;3219;51.362;7.074;2022-10-15T16:04:16;16.70;99.90
6373;DHT22;3219;51.362;7.074;2022-10-15T16:06:44;16.70;99.90
6373;DHT22;3219;51.362;7.074;2022-10-15T16:09:14;16.60;99.90
6373;DHT22;3219;51.362;7.074;2022-10-15T16:11:41;16.60;99.90
6373;DHT22;3219;51.362;7.074;2022-10-15T16:14:07;16.60;99.90
6373;DHT22;3219;51.362;7.074;2022-10-15T16:16:34;16.50;99.90
6373;DHT22;3219;51.362;7.074;2022-10-15T16:19:01;16.40;99.90
6373;DHT22;3219;51.362;7.074;2022-10-15T16:21:28;16.40;99.90
6373;DHT22;3219;51.362;7.074;2022-10-15T16:23:56;16.30;99.90
6373;DHT22;3219;51.362;7.074;2022-10-15T16:26:23;16.30;99.90
6373;DHT22;3219;51.362;7.074;2022-10-15T16:28:50;16.30;99.90
6373;DHT22;3219;51.362;7.074;2022-10-15T16:31:18;16.20;99.90